Time;durP1;ratioP1;P1;durP2;ratioP2;P2;SDS_P1;SDS_P2;PMS_P1;PMS_P2;Temp;Humidity;BMP_temperature;BMP_pressure;BME280_temperature;BME280_humidity;BME280_pressure;Samples;Min_cycle;Max_cycle;Signal;HPM_P1;HPM_P2
2023/01/26 00:01:38;;;;;;;117.57;46.58;;;;;;;-2.04;100.00;102536.56;4957321;29;20035;-85
2023/01/26 00:04:03;;;;;;;127.07;47.55;;;;;;;-1.87;100.00;102558.75;4957295;28;20027;-85
2023/01/26 00:06:29;;;;;;;122.00;46.83;;;;;;;-1.98;100.00;102532.44;4957133;28;20039;-85
2023/01/26 00:08:56;;;;;;;126.03;46.80;;;;;;;-1.82;100.00;102563.09;4957366;29;20058;-84
2023/01/26 00:11:27;;;;;;;119.35;48.38;;;;;;;-1.96;100.00;102536.72;4957260;28;20166;-84
2023/01/26 00:13:53;;;;;;;;;;;;;;;-1.82;100.00;102562.22;4957545;28;20038;-85
2023/01/26 00:16:19;;;;;;;125.57;45.90;;;;;;;-2.06;100.00;102523.06;4956983;28;19915;-84
2023/01/26 00:18:45;;;;;;;124.95;47.80;;;;;;;-1.87;100.00;102549.50;4956921;28;20031;-85
2023/01/26 00:21:15;;;;;;;117.30;45.38;;;;;;;-1.85;100.00;102547.84;4956855;28;20031;-85
2023/01/26 00:23:41;;;;;;;119.93;45.00;;;;;;;-1.87;100.00;102548.63;4956898;28;20083;-85
2023/01/26 00:26:09;;;;;;;122.28;47.90;;;;;;;-1.92;100.00;102550.25;4956761;28;20447;-85
2023/01/26 00:28:34;;;;;;;122.00;46.38;;;;;;;-1.88;100.00;102545.25;4955780;29;20034;-85
2023/01/26 00:31:09;;;;;;;123.00;44.58;;;;;;;-1.89;100.00;102545.22;4955513;29;20031;-85
2023/01/26 00:33:34;;;;;;;125.03;47.47;;;;;;;-2.21;100.00;102489.03;4956692;28;20063;-86
2023/01/26 00:35:59;;;;;;;125.55;47.10;;;;;;;-2.24;100.00;102481.41;4956515;28;20058;-83
2023/01/26 00:38:25;;;;;;;128.75;46.90;;;;;;;-2.44;100.00;102454.09;4956732;29;20078;-85
2023/01/26 00:40:50;;;;;;;117.95;43.78;;;;;;;-2.01;100.00;102520.56;4956510;28;20046;-85
2023/01/26 00:43:16;;;;;;;127.30;44.90;;;;;;;-2.08;100.00;102514.56;4956447;29;20039;-84
2023/01/26 00:45:41;;;;;;;121.10;44.13;;;;;;;-1.98;100.00;102519.75;4956198;28;20110;-84
2023/01/26 00:48:06;;;;;;;120.05;44.00;;;;;;;-2.27;100.00;102477.13;4955885;28;20042;-85
2023/01/26 00:50:32;;;;;;;128.82;44.80;;;;;;;-2.00;100.00;102517.22;4956476;28;20035;-84
2023/01/26 00:52:58;;;;;;;122.75;44.00;;;;;;;-2.02;100.00;102506.22;4956214;28;20027;-85
2023/01/26 00:55:30;;;;;;;123.13;46.10;;;;;;;-2.18;100.00;102481.47;4956583;28;20395;-85
2023/01/26 00:57:59;;;;;;;121.78;44.78;;;;;;;-1.94;100.00;102516.47;4954988;29;20507;-85
2023/01/26 01:00:25;;;;;;;117.32;45.90;;;;;;;-2.06;100.00;102497.75;4956246;28;20034;-84
2023/01/26 01:02:50;;;;;;;118.45;41.55;;;;;;;-2.12;100.00;102469.78;4956241;28;20027;-84
2023/01/26 01:05:16;;;;;;;125.43;45.65;;;;;;;-1.99;100.00;102482.63;4952603;28;20499;-84
2023/01/26 01:07:41;;;;;;;117.85;41.85;;;;;;;-2.08;100.00;102471.53;4936920;29;20027;-85
2023/01/26 01:10:07;;;;;;;119.25;42.85;;;;;;;-2.26;100.00;102432.44;4937222;29;20098;-84
2023/01/26 01:12:34;;;;;;;114.32;41.97;;;;;;;-1.89;100.00;102499.66;4937401;29;20028;-83
2023/01/26 01:14:59;;;;;;;110.75;42.42;;;;;;;-2.17;100.00;102452.81;4936760;29;20052;-85
2023/01/26 01:17:24;;;;;;;112.25;41.03;;;;;;;-1.95;100.00;102487.78;4936700;29;20052;-85
2023/01/26 01:19:50;;;;;;;113.05;42.58;;;;;;;-1.84;100.00;102506.50;4936584;29;20046;-83
2023/01/26 01:22:15;;;;;;;113.35;43.00;;;;;;;-1.87;100.00;102508.13;4936523;29;20186;-83
2023/01/26 01:24:41;;;;;;;119.25;44.15;;;;;;;-2.20;100.00;102461.22;4936803;29;20024;-83
2023/01/26 01:27:06;;;;;;;110.82;42.28;;;;;;;-1.92;100.00;102499.63;4936803;29;20091;-83
2023/01/26 01:29:31;;;;;;;113.28;42.35;;;;;;;-2.12;100.00;102468.94;4936824;29;20373;-84
2023/01/26 01:31:57;;;;;;;112.35;42.38;;;;;;;-2.14;100.00;102453.72;4936545;29;20032;-83
2023/01/26 01:34:22;;;;;;;114.60;43.63;;;;;;;-1.94;100.00;102486.94;4936485;29;20375;-83
2023/01/26 01:36:48;;;;;;;123.45;44.38;;;;;;;-1.83;100.00;102490.50;4935355;29;20527;-83
2023/01/26 01:39:13;;;;;;;117.40;42.40;;;;;;;-1.80;100.00;102495.59;4936495;29;20031;-83
2023/01/26 01:41:38;;;;;;;118.25;43.53;;;;;;;-1.81;100.00;102493.88;4936527;29;20019;-84
2023/01/26 01:44:30;;;;;;;115.75;43.47;;;;;;;-1.75;100.00;102499.06;4936338;29;20051;-84
2023/01/26 01:46:55;;;;;;;115.25;42.47;;;;;;;-1.74;100.00;102503.28;4934923;29;20039;-84
2023/01/26 01:49:24;;;;;;;114.72;42.50;;;;;;;-1.75;100.00;102499.06;4936215;29;20035;-84
2023/01/26 01:51:53;;;;;;;111.95;42.65;;;;;;;-1.84;100.00;102487.94;4936230;29;20110;-84
2023/01/26 01:54:30;;;;;;;107.72;40.70;;;;;;;-1.91;100.00;102463.34;4936033;29;20028;-84
2023/01/26 01:56:58;;;;;;;110.03;42.08;;;;;;;-1.71;100.00;102504.16;4936059;29;20484;-84
2023/01/26 01:59:24;;;;;;;103.22;38.72;;;;;;;-1.98;100.00;102454.81;4935426;29;20035;-84
2023/01/26 02:01:51;;;;;;;103.43;40.05;;;;;;;-1.78;100.00;102490.53;4936011;29;20110;-84
2023/01/26 02:04:20;;;;;;;98.68;38.88;;;;;;;-1.73;100.00;102486.41;4935861;29;20039;-84
2023/01/26 02:06:53;;;;;;;98.75;39.65;;;;;;;-1.72;100.00;102490.63;4935578;29;20468;-84
2023/01/26 02:12:20;;;;;;;97.22;38.80;;;;;;;-2.18;100.00;102416.53;4935982;29;20558;-84
2023/01/26 02:14:45;;;;;;;101.30;38.25;;;;;;;-1.73;100.00;102484.72;4935591;29;20028;-84
2023/01/26 02:17:11;;;;;;;99.38;39.60;;;;;;;-1.90;100.00;102445.63;4935941;29;20107;-84
2023/01/26 02:19:41;;;;;;;104.82;39.92;;;;;;;-1.73;100.00;102479.66;4936230;29;20091;-84
2023/01/26 02:22:34;;;;;;;99.23;38.63;;;;;;;-1.92;100.00;102437.19;4936115;29;20094;-84
2023/01/26 02:25:06;;;;;;;99.15;39.08;;;;;;;-1.72;100.00;102467.84;4935235;29;21155;-84
2023/01/26 02:27:31;;;;;;;105.53;40.55;;;;;;;-1.84;100.00;102460.94;4934330;29;20040;-84
2023/01/26 02:30:00;;;;;;;103.68;40.22;;;;;;;-1.94;100.00;102448.97;4935571;29;20545;-84
2023/01/26 02:32:27;;;;;;;100.35;39.00;;;;;;;-1.77;100.00;102472.88;4935600;29;20448;-84
2023/01/26 02:34:56;;;;;;;102.50;40.25;;;;;;;-1.78;100.00;102465.22;4935763;29;20027;-85
2023/01/26 02:37:22;;;;;;;100.53;38.72;;;;;;;-1.73;100.00;102461.94;4935515;29;20030;-86
2023/01/26 02:40:09;;;;;;;102.65;38.33;;;;;;;-1.69;100.00;102467.03;4935364;29;20460;-84
2023/01/26 02:42:37;;;;;;;105.15;41.08;;;;;;;-2.23;100.00;102382.75;4934489;29;20079;-84
2023/01/26 02:45:04;;;;;;;105.85;41.72;;;;;;;-1.83;100.00;102449.97;4935475;29;20024;-85
2023/01/26 02:47:29;;;;;;;97.50;38.55;;;;;;;-1.73;100.00;102466.16;4935106;29;20027;-84
2023/01/26 02:49:57;;;;;;;106.88;40.65;;;;;;;-2.05;100.00;102403.25;4935560;29;20391;-85
2023/01/26 02:52:27;;;;;;;95.97;38.60;;;;;;;-1.67;100.00;102461.19;4935378;29;20051;-85
2023/01/26 02:57:38;;;;;;;108.53;40.10;;;;;;;-1.65;100.00;102454.44;4935858;29;20123;-84
2023/01/26 03:00:06;;;;;;;102.50;39.30;;;;;;;-1.64;100.00;102462.88;4935321;29;20032;-84
2023/01/26 03:02:32;;;;;;;103.82;39.80;;;;;;;-1.85;100.00;102426.31;4935329;29;20384;-84
2023/01/26 03:04:57;;;;;;;102.15;40.58;;;;;;;-1.91;100.00;102418.63;4935273;29;20028;-84
2023/01/26 03:07:22;;;;;;;101.88;39.55;;;;;;;-1.69;100.00;102446.78;4934968;29;20035;-85
2023/01/26 03:09:48;;;;;;;108.07;39.65;;;;;;;-1.60;100.00;102457.88;4935395;29;20035;-84
2023/01/26 03:12:14;;;;;;;96.38;39.42;;;;;;;-1.58;100.00;102455.34;4939304;29;20048;-85
2023/01/26 03:14:40;;;;;;;95.75;38.88;;;;;;;-1.56;100.00;102453.72;4939172;29;20542;-84
2023/01/26 03:17:05;;;;;;;104.72;37.50;;;;;;;-1.62;100.00;102434.22;4938826;29;20063;-85
2023/01/26 03:27:47;;;;;;;90.95;33.40;;;;;;;-1.54;100.00;102452.06;4938709;29;20055;-84
2023/01/26 03:30:15;;;;;;;98.25;35.72;;;;;;;-1.80;100.00;102414.56;4938876;29;20401;-84
2023/01/26 03:32:40;;;;;;;92.35;35.17;;;;;;;-1.57;100.00;102442.75;4938607;29;20028;-84
2023/01/26 03:35:06;;;;;;;94.25;36.47;;;;;;;-1.53;100.00;102454.59;4938539;29;20098;-84
2023/01/26 03:37:35;;;;;;;92.07;35.88;;;;;;;-1.60;100.00;102439.28;4938592;29;20070;-83
2023/01/26 03:56:31;;;;;;;90.53;35.00;;;;;;;-1.37;100.00;102443.00;4938603;29;20039;-85
2023/01/26 03:59:06;;;;;;;79.95;32.65;;;;;;;-1.59;100.00;102406.38;4938227;29;20132;-84
2023/01/26 04:01:33;;;;;;;85.00;33.40;;;;;;;-1.37;100.00;102447.22;4938407;29;20027;-84
2023/01/26 04:09:29;;;;;;;83.80;31.77;;;;;;;-1.32;100.00;102445.56;4938362;29;20080;-82
2023/01/26 04:11:55;;;;;;;81.78;31.15;;;;;;;-1.39;100.00;102431.97;4937954;29;20024;-83
2023/01/26 04:22:42;;;;;;;77.60;32.05;;;;;;;-1.50;100.00;102403.97;4937292;29;20035;-83
2023/01/26 04:25:08;;;;;;;77.15;31.65;;;;;;;-1.22;100.00;102443.16;4937844;29;20040;-82
2023/01/26 04:27:34;;;;;;;70.72;29.10;;;;;;;-1.56;100.00;102377.72;4937546;29;20055;-85
2023/01/26 04:30:00;;;;;;;78.75;30.42;;;;;;;-1.23;100.00;102446.53;4937856;29;20095;-84
2023/01/26 04:32:26;;;;;;;71.70;29.83;;;;;;;-1.45;100.00;102399.81;4937650;29;20472;-83
2023/01/26 04:34:51;;;;;;;73.70;30.55;;;;;;;-1.37;100.00;102415.13;4937437;29;20028;-85
2023/01/26 04:37:17;;;;;;;71.63;30.27;;;;;;;-1.21;100.00;102444.00;4937456;29;20032;-84
2023/01/26 04:39:42;;;;;;;75.93;32.22;;;;;;;-1.27;100.00;102439.72;4937586;29;20042;-83
2023/01/26 04:42:07;;;;;;;70.43;28.33;;;;;;;-1.73;100.00;102369.91;4937641;29;20483;-82
2023/01/26 04:44:33;;;;;;;71.35;29.83;;;;;;;-1.21;100.00;102444.84;4937296;29;20038;-83
2023/01/26 04:46:58;;;;;;;73.70;29.77;;;;;;;-1.39;100.00;102409.16;4937610;29;20036;-82
2023/01/26 04:49:23;;;;;;;75.72;29.40;;;;;;;-1.16;100.00;102450.00;4937363;29;20094;-82
2023/01/26 04:51:49;;;;;;;68.47;31.13;;;;;;;-1.15;100.00;102444.09;4937308;29;20530;-82
2023/01/26 04:54:14;;;;;;;72.40;29.42;;;;;;;-1.54;100.00;102379.44;4937258;29;20051;-84
2023/01/26 04:56:39;;;;;;;72.18;30.20;;;;;;;-1.11;100.00;102448.34;4937357;29;20114;-83
2023/01/26 04:59:06;;;;;;;66.43;27.45;;;;;;;-1.07;100.00;102439.94;4937134;29;20031;-84
2023/01/26 05:01:32;;;;;;;65.50;28.15;;;;;;;-1.06;100.00;102443.34;4937456;29;20039;-83
2023/01/26 05:03:59;;;;;;;65.97;27.45;;;;;;;-1.03;100.00;102439.13;4937171;29;20032;-83
2023/01/26 05:06:25;;;;;;;61.60;25.92;;;;;;;-1.14;100.00;102417.91;4937098;29;20035;-83
2023/01/26 05:08:50;;;;;;;60.30;25.85;;;;;;;-1.15;100.00;102416.19;4935895;29;20035;-83
2023/01/26 05:11:15;;;;;;;61.28;26.48;;;;;;;-1.07;100.00;102424.75;4936976;29;20094;-83
2023/01/26 05:13:41;;;;;;;58.72;24.52;;;;;;;-0.99;100.00;102433.25;4937212;29;20091;-83
2023/01/26 05:16:06;;;;;;;59.08;25.08;;;;;;;-1.40;100.00;102361.00;4937315;29;20547;-83
2023/01/26 05:18:32;;;;;;;57.42;24.58;;;;;;;-1.12;100.00;102406.06;4936805;29;20034;-83
2023/01/26 05:20:58;;;;;;;56.35;25.23;;;;;;;-1.11;100.00;102412.00;4936792;29;20050;-83
2023/01/26 05:23:23;;;;;;;50.28;22.17;;;;;;;-0.94;100.00;102440.94;4936924;29;20024;-83
2023/01/26 05:25:49;;;;;;;50.97;22.90;;;;;;;-0.93;100.00;102440.09;4935212;29;20043;-84
2023/01/26 05:28:14;;;;;;;51.42;22.13;;;;;;;-0.92;100.00;102437.56;4936602;29;20036;-84
2023/01/26 05:30:40;;;;;;;54.60;22.10;;;;;;;-0.87;100.00;102435.09;4936741;29;20027;-84
2023/01/26 05:33:07;;;;;;;48.40;21.85;;;;;;;-0.99;100.00;102414.66;4936569;29;20031;-84
2023/01/26 05:35:33;;;;;;;46.17;20.00;;;;;;;-0.84;100.00;102444.41;4935128;29;20126;-84
2023/01/26 05:37:58;;;;;;;48.05;22.77;;;;;;;-1.10;100.00;102394.28;4935244;29;20118;-86
2023/01/26 05:40:25;;;;;;;50.92;21.98;;;;;;;-0.84;100.00;102442.72;4936561;29;20039;-85
2023/01/26 05:42:51;;;;;;;49.35;22.88;;;;;;;-1.03;100.00;102405.34;4936191;29;20028;-87
2023/01/26 05:45:17;;;;;;;47.55;21.50;;;;;;;-0.95;100.00;102421.47;4936347;29;20039;-85
2023/01/26 05:47:43;;;;;;;51.42;23.15;;;;;;;-0.81;100.00;102436.81;4936547;29;20039;-85
2023/01/26 05:50:12;;;;;;;47.50;22.27;;;;;;;-1.01;100.00;102404.50;4936479;29;20035;-85
2023/01/26 05:52:38;;;;;;;55.22;21.90;;;;;;;-1.20;100.00;102380.66;4936274;29;20028;-86
2023/01/26 05:55:05;;;;;;;48.90;20.80;;;;;;;-0.81;100.00;102439.34;4936088;29;20032;-85
2023/01/26 05:57:31;;;;;;;50.92;20.85;;;;;;;-0.93;100.00;102424.88;4936141;29;20075;-86
2023/01/26 05:59:56;;;;;;;48.78;20.95;;;;;;;-1.02;100.00;102396.88;4936140;29;20118;-84
2023/01/26 06:02:22;;;;;;;50.60;21.17;;;;;;;-0.77;100.00;102443.63;4936339;29;20036;-84
2023/01/26 06:04:47;;;;;;;43.70;20.30;;;;;;;-0.85;100.00;102432.56;4936156;29;20035;-84
2023/01/26 06:07:13;;;;;;;49.60;20.67;;;;;;;-0.78;100.00;102447.00;4936231;29;20036;-83
2023/01/26 06:09:39;;;;;;;50.92;21.67;;;;;;;-0.74;100.00;102451.28;4936098;29;20028;-83
2023/01/26 06:12:05;;;;;;;52.33;20.77;;;;;;;-0.74;100.00;102456.34;4935965;29;20490;-83
2023/01/26 06:14:30;;;;;;;54.65;22.25;;;;;;;-0.83;100.00;102439.34;4935892;29;20032;-83
2023/01/26 06:16:56;;;;;;;47.72;20.00;;;;;;;-0.93;100.00;102413.03;4935999;29;20023;-83
2023/01/26 06:19:21;;;;;;;51.42;21.67;;;;;;;-0.70;100.00;102455.53;4935746;29;20032;-83
2023/01/26 06:21:46;;;;;;;52.75;21.77;;;;;;;-0.72;100.00;102457.19;4935642;29;20507;-83
2023/01/26 06:24:12;;;;;;;48.58;21.67;;;;;;;-1.02;100.00;102399.41;4935627;29;20034;-83
2023/01/26 06:26:38;;;;;;;48.45;20.85;;;;;;;-0.94;100.00;102415.56;4934216;29;20139;-83
2023/01/26 06:29:03;;;;;;;49.40;21.23;;;;;;;-0.82;100.00;102425.81;4935501;29;20063;-83
2023/01/26 06:31:28;;;;;;;51.45;22.98;;;;;;;-0.73;100.00;102443.66;4934588;29;20040;-83
2023/01/26 06:33:54;;;;;;;50.47;21.88;;;;;;;-0.87;100.00;102425.78;4935521;29;20071;-83
2023/01/26 06:36:20;;;;;;;48.20;20.63;;;;;;;-0.65;100.00;102458.97;4935608;29;20032;-83
2023/01/26 06:38:47;;;;;;;45.95;20.90;;;;;;;-0.64;100.00;102455.59;4935539;29;20510;-83
2023/01/26 06:41:13;;;;;;;47.13;19.75;;;;;;;-0.71;100.00;102446.22;4935592;29;20032;-83
2023/01/26 06:43:42;;;;;;;44.53;19.35;;;;;;;-1.01;100.00;102399.44;4935435;29;20115;-83
2023/01/26 06:46:08;;;;;;;42.30;18.50;;;;;;;-0.66;100.00;102468.25;4935307;29;20074;-83
2023/01/26 06:48:34;;;;;;;47.28;20.48;;;;;;;-0.62;100.00;102464.91;4935593;29;20480;-83
2023/01/26 06:51:04;;;;;;;47.03;18.58;;;;;;;-0.64;100.00;102458.13;4935294;29;20091;-83
2023/01/26 06:53:40;;;;;;;42.92;19.65;;;;;;;-0.60;100.00;102465.75;4935319;29;20522;-83
2023/01/26 06:56:06;;;;;;;43.50;18.63;;;;;;;-0.73;100.00;102442.81;4935370;29;20036;-84
2023/01/26 06:58:31;;;;;;;43.70;20.30;;;;;;;-0.60;100.00;102460.69;4935470;29;20140;-83
2023/01/26 07:00:56;;;;;;;44.55;19.95;;;;;;;-0.61;100.00;102469.16;4935489;29;20388;-84
2023/01/26 07:03:22;;;;;;;44.78;19.80;;;;;;;-0.83;100.00;102428.34;4935631;29;20038;-82
2023/01/26 07:05:47;;;;;;;40.92;18.80;;;;;;;-0.64;100.00;102460.66;4935100;29;20028;-84
2023/01/26 07:08:12;;;;;;;46.80;19.05;;;;;;;-0.72;100.00;102441.97;4935593;29;20027;-84
2023/01/26 07:10:38;;;;;;;43.42;18.40;;;;;;;-0.55;100.00;102480.19;4935296;29;20070;-83
2023/01/26 07:13:04;;;;;;;45.53;20.45;;;;;;;-0.64;100.00;102458.97;4935262;29;20404;-84
2023/01/26 07:15:30;;;;;;;46.55;19.55;;;;;;;-0.49;100.00;102482.78;4935510;29;20399;-83
2023/01/26 07:17:57;;;;;;;45.03;19.63;;;;;;;-0.69;100.00;102447.06;4935313;29;20039;-83
2023/01/26 07:20:23;;;;;;;47.30;19.30;;;;;;;-0.65;100.00;102449.66;4935050;29;20063;-85
2023/01/26 07:22:49;;;;;;;47.67;20.25;;;;;;;-0.44;100.00;102473.53;4935137;29;20087;-86
2023/01/26 07:25:15;;;;;;;46.92;18.88;;;;;;;-0.53;100.00;102466.69;4935311;29;20031;-84
2023/01/26 07:27:44;;;;;;;44.65;20.30;;;;;;;-0.58;100.00;102455.66;4935110;29;20058;-83
2023/01/26 07:30:11;;;;;;;45.15;18.85;;;;;;;-0.43;100.00;102476.09;4935348;29;20090;-85
2023/01/26 07:32:36;;;;;;;44.97;19.58;;;;;;;-0.44;100.00;102474.38;4935039;29;20118;-83
2023/01/26 07:35:02;;;;;;;50.22;20.33;;;;;;;-0.82;100.00;102415.69;4935238;29;20533;-85
2023/01/26 07:37:28;;;;;;;40.92;18.55;;;;;;;-0.50;100.00;102470.94;4935109;29;20055;-89
2023/01/26 07:39:53;;;;;;;43.28;18.42;;;;;;;-1.21;100.00;102348.53;4935307;29;20074;-88
2023/01/26 07:42:19;;;;;;;48.08;19.27;;;;;;;-0.40;100.00;102476.09;4935746;29;20430;-88
2023/01/26 07:44:44;;;;;;;44.95;19.70;;;;;;;-1.00;100.00;102383.38;4939551;29;20059;-86
2023/01/26 07:47:09;;;;;;;51.22;21.23;;;;;;;-1.25;100.00;102344.28;4938726;29;20488;-88
2023/01/26 07:49:35;;;;;;;49.92;20.42;;;;;;;-0.37;100.00;102488.84;4935599;29;20062;-86
2023/01/26 07:52:04;;;;;;;47.00;18.70;;;;;;;-0.34;100.00;102495.63;4934961;29;20035;-86
2023/01/26 07:54:29;;;;;;;47.40;19.15;;;;;;;-0.33;100.00;102498.16;4935141;29;20028;-87
2023/01/26 07:56:55;;;;;;;48.78;19.42;;;;;;;-0.30;100.00;102498.19;4935493;29;20058;-87
2023/01/26 07:59:21;;;;;;;46.35;19.73;;;;;;;-0.30;100.00;102502.41;4938461;29;20027;-86
2023/01/26 08:01:48;;;;;;;49.25;20.45;;;;;;;-0.30;100.00;102498.19;4939122;29;20052;-88
2023/01/26 08:04:13;;;;;;;46.13;19.55;;;;;;;-0.37;100.00;102482.91;4938451;29;20040;-86
2023/01/26 08:06:39;;;;;;;52.38;22.00;;;;;;;-0.67;100.00;102440.34;4938662;29;20037;-87
2023/01/26 08:09:04;;;;;;;51.40;21.70;;;;;;;-0.23;100.00;102508.41;4938421;29;20114;-86
2023/01/26 08:11:29;;;;;;;49.10;20.45;;;;;;;-0.23;100.00;102509.25;4940183;29;20107;-85
2023/01/26 08:13:55;;;;;;;45.92;19.55;;;;;;;-0.23;100.00;102511.78;4941394;29;20031;-88
2023/01/26 08:16:21;;;;;;;48.63;20.48;;;;;;;-0.21;100.00;102509.25;4944317;29;20055;-89
2023/01/26 08:18:46;;;;;;;50.58;20.75;;;;;;;-0.41;100.00;102478.63;4942816;29;20039;-83
2023/01/26 08:21:15;;;;;;;50.10;21.38;;;;;;;-0.17;100.00;102509.31;4942764;29;20071;-85
2023/01/26 08:23:40;;;;;;;51.30;21.10;;;;;;;-0.40;100.00;102465.09;4940165;29;20496;-82
2023/01/26 08:26:12;;;;;;;50.88;20.88;;;;;;;-0.32;100.00;102473.63;4941875;29;20078;-86
2023/01/26 08:28:38;;;;;;;50.72;20.00;;;;;;;-0.07;100.00;102507.69;4940889;29;20474;-86
2023/01/26 08:31:12;;;;;;;53.33;21.67;;;;;;;-0.05;100.00;102509.41;4938457;29;20036;-86
2023/01/26 08:33:42;;;;;;;50.60;20.70;;;;;;;-0.40;100.00;102450.72;4944042;29;20059;-91
2023/01/26 08:36:10;;;;;;;49.35;20.30;;;;;;;-0.16;100.00;102488.16;4939485;29;20032;-87
2023/01/26 08:38:36;;;;;;;52.88;22.63;;;;;;;-0.17;100.00;102478.00;4939371;29;20076;-88
2023/01/26 08:41:02;;;;;;;51.72;21.25;;;;;;;-0.31;100.00;102452.47;4940268;29;20032;-86
2023/01/26 08:43:28;;;;;;;53.05;21.60;;;;;;;-0.21;100.00;102478.78;4937917;29;20027;-87
2023/01/26 08:46:06;;;;;;;48.08;20.60;;;;;;;-1.13;100.00;102313.13;4940705;29;20043;-88
2023/01/26 08:48:37;;;;;;;56.22;23.20;;;;;;;-0.77;100.00;102368.41;4941203;29;20024;-87
2023/01/26 08:51:04;;;;;;;51.13;21.02;;;;;;;0.04;100.00;102493.38;4938832;29;20016;-90
2023/01/26 08:53:31;;;;;;;54.42;23.23;;;;;;;-0.99;100.00;102321.69;4938850;29;20373;-90
2023/01/26 08:56:15;;;;;;;53.45;21.42;;;;;;;0.30;100.00;102533.38;4936616;29;20043;-86
2023/01/26 08:58:51;;;;;;;55.60;21.75;;;;;;;0.32;100.00;102530.00;4937480;29;20114;-87
2023/01/26 09:01:17;;;;;;;55.33;21.10;;;;;;;-0.61;100.00;102349.06;4939860;29;20043;-90
2023/01/26 09:03:43;;;;;;;53.30;21.95;;;;;;;-0.55;100.00;102349.13;4938006;29;20128;-91
2023/01/26 09:06:15;;;;;;;57.80;20.92;;;;;;;-0.52;100.00;102351.66;4939290;29;20036;-93
2023/01/26 09:08:41;;;;;;;54.95;22.25;;;;;;;0.16;100.00;102452.81;4940836;29;20088;-89
2023/01/26 09:11:07;;;;;;;51.00;21.13;;;;;;;0.58;100.00;102527.59;4945856;29;20031;-89
2023/01/26 09:13:32;;;;;;;49.72;21.55;;;;;;;-0.10;100.00;102408.63;4941411;29;20027;-88
2023/01/26 09:15:58;;;;;;;55.05;21.92;;;;;;;0.59;100.00;102526.78;4942739;29;20043;-93
2023/01/26 09:18:23;;;;;;;52.38;21.27;;;;;;;0.57;100.00;102529.28;4936416;29;20036;-91
2023/01/26 09:20:50;;;;;;;62.85;23.52;;;;;;;0.47;100.00;102511.44;4937543;29;20123;-90
2023/01/26 09:23:17;;;;;;;49.83;20.92;;;;;;;0.22;100.00;102467.28;4940569;29;20026;-90
2023/01/26 09:25:42;;;;;;;58.47;22.50;;;;;;;0.56;100.00;102530.13;4940580;29;20095;-90
2023/01/26 09:28:08;;;;;;;58.15;22.98;;;;;;;0.16;100.00;102468.06;4938399;29;20527;-86
2023/01/26 09:30:33;;;;;;;60.88;23.13;;;;;;;0.50;100.00;102524.19;4935894;29;20050;-87
2023/01/26 09:33:00;;;;;;;57.33;23.27;;;;;;;0.43;100.00;102517.38;4936995;29;20058;-85
2023/01/26 09:35:26;;;;;;;58.40;22.30;;;;;;;0.39;100.00;102492.75;4937364;29;20028;-88
2023/01/26 09:37:52;;;;;;;59.83;23.80;;;;;;;0.75;100.00;102541.25;4951957;29;20027;-86
2023/01/26 09:40:36;;;;;;;60.15;23.30;;;;;;;0.81;100.00;102536.22;4951319;29;20083;-85
2023/01/26 09:43:23;;;;;;;54.70;22.92;;;;;;;0.80;100.00;102526.03;4945049;29;20098;-84
2023/01/26 09:46:20;;;;;;;55.13;23.15;;;;;;;0.97;100.00;102537.13;4936421;29;20032;-87
2023/01/26 09:49:06;;;;;;;55.70;22.80;;;;;;;1.01;100.00;102535.47;4936522;29;20049;-83
2023/01/26 09:51:50;;;;;;;59.67;22.90;;;;;;;0.99;100.00;102525.28;4939183;29;20066;-83
2023/01/26 09:54:37;;;;;;;57.35;23.08;;;;;;;1.12;100.00;102541.44;4938336;29;20372;-82
2023/01/26 09:57:17;;;;;;;55.05;23.30;;;;;;;1.17;100.00;102532.09;4938077;29;20046;-84
2023/01/26 09:59:46;;;;;;;66.95;24.45;;;;;;;1.15;100.00;102532.09;4936230;29;20040;-85
2023/01/26 10:02:23;;;;;;;59.30;23.48;;;;;;;1.14;100.00;102520.22;4936529;29;20063;-83
2023/01/26 10:04:54;;;;;;;60.88;23.95;;;;;;;1.11;100.00;102493.94;4936341;29;20118;-86
2023/01/26 10:07:20;;;;;;;57.50;23.17;;;;;;;1.37;100.00;102524.53;4936032;29;20161;-85
2023/01/26 10:09:48;;;;;;;63.92;23.70;;;;;;;1.42;100.00;102536.44;4935956;29;20563;-84
2023/01/26 10:12:34;;;;;;;58.03;22.63;;;;;;;1.45;100.00;102522.84;4936121;29;20023;-83
2023/01/26 10:15:28;;;;;;;60.50;23.83;;;;;;;1.56;100.00;102530.50;4936023;29;20036;-82
2023/01/26 10:17:54;;;;;;;59.83;24.60;;;;;;;1.60;100.00;102527.13;4935579;29;20031;-81
2023/01/26 10:20:27;;;;;;;62.42;24.23;;;;;;;1.65;100.00;102523.72;4935265;29;20032;-82
2023/01/26 10:23:06;;;;;;;62.10;23.70;;;;;;;1.67;100.00;102529.69;4935644;29;20491;-83
2023/01/26 10:25:39;;;;;;;60.50;23.42;;;;;;;1.66;100.00;102527.13;4935771;29;20030;-83
2023/01/26 10:28:13;;;;;;;64.25;24.27;;;;;;;1.61;100.00;102522.03;4938364;29;20035;-82
2023/01/26 10:30:40;;;;;;;56.03;23.23;;;;;;;1.62;100.00;102535.63;4954474;28;20042;-82
2023/01/26 10:33:17;;;;;;;67.03;23.55;;;;;;;1.36;100.00;102498.22;4953277;29;20613;-82
2023/01/26 10:35:42;;;;;;;65.53;24.08;;;;;;;1.13;100.00;102460.00;4954752;28;20027;-81
2023/01/26 10:38:32;;;;;;;65.35;23.13;;;;;;;1.44;100.00;102519.44;4955184;28;20046;-81
2023/01/26 10:41:04;;;;;;;64.15;24.00;;;;;;;1.43;100.00;102512.66;4954589;28;20094;-81
2023/01/26 10:43:50;;;;;;;62.33;21.98;;;;;;;1.61;100.00;102526.28;4954840;28;20038;-82
2023/01/26 10:46:36;;;;;;;58.75;22.08;;;;;;;1.62;100.00;102507.59;4954634;28;20031;-81
2023/01/26 10:49:14;;;;;;;64.38;22.92;;;;;;;1.76;100.00;102515.25;4953534;29;20497;-82
2023/01/26 10:51:46;;;;;;;70.30;23.33;;;;;;;1.79;100.00;102515.28;4954657;28;20558;-81
2023/01/26 10:54:13;;;;;;;;;;;;;;;2.02;100.00;102531.41;4954859;28;20027;-81
2023/01/26 10:56:47;;;;;;;65.57;22.85;;;;;;;1.96;100.00;102519.50;4954559;28;19914;-82
2023/01/26 10:59:21;;;;;;;59.45;22.85;;;;;;;2.15;100.00;102540.72;4954465;28;20483;-81
2023/01/26 11:01:52;;;;;;;65.38;24.75;;;;;;;2.25;100.00;102523.72;4954757;28;20031;-81
2023/01/26 11:04:18;;;;;;;66.35;23.02;;;;;;;2.32;100.00;102527.97;4954553;28;20563;-82
2023/01/26 11:06:44;;;;;;;62.80;22.00;;;;;;;2.38;100.00;102520.31;4954636;28;20057;-81
2023/01/26 11:09:27;;;;;;;60.75;23.48;;;;;;;2.25;100.00;102490.59;4954295;29;20082;-81
2023/01/26 11:12:01;;;;;;;64.63;22.55;;;;;;;2.53;100.00;102520.28;4954400;28;20047;-81
2023/01/26 11:14:28;;;;;;;66.63;22.85;;;;;;;2.50;100.00;102520.28;4954344;28;20472;-82
2023/01/26 11:17:21;;;;;;;72.60;22.45;;;;;;;2.37;100.00;102489.75;4953211;29;20027;-83
2023/01/26 11:19:57;;;;;;;67.03;21.67;;;;;;;2.54;100.00;102513.47;4954424;28;20035;-80
2023/01/26 11:22:42;;;;;;;65.95;20.52;;;;;;;2.48;100.00;102509.25;4953101;29;20399;-81
2023/01/26 11:25:20;;;;;;;65.55;22.80;;;;;;;2.54;100.00;102513.47;4954104;28;20033;-81
2023/01/26 11:28:14;;;;;;;68.30;20.63;;;;;;;2.73;100.00;102527.88;4954174;28;20047;-81
2023/01/26 11:31:08;;;;;;;70.82;22.02;;;;;;;2.80;100.00;102532.09;4954362;28;20039;-82
2023/01/26 11:33:51;;;;;;;64.10;20.50;;;;;;;2.87;100.00;102538.88;4957875;28;20034;-82
2023/01/26 11:36:41;;;;;;;70.70;21.50;;;;;;;2.98;100.00;102528.63;4958141;29;20085;-81
2023/01/26 11:39:28;;;;;;;60.05;19.52;;;;;;;3.13;100.00;102526.00;4958021;29;20121;-80
2023/01/26 11:42:15;;;;;;;69.50;19.17;;;;;;;3.20;100.00;102508.09;4956798;28;20103;-78
2023/01/26 11:44:54;;;;;;;60.28;18.42;;;;;;;3.12;100.00;102505.59;4958546;28;20031;-79
2023/01/26 11:47:27;;;;;;;68.65;21.15;;;;;;;3.26;100.00;102508.09;4956091;29;20054;-78
2023/01/26 11:50:22;;;;;;;68.70;19.60;;;;;;;3.32;100.00;102501.22;4957951;28;20375;-80
2023/01/26 11:52:51;;;;;;;62.50;20.13;;;;;;;3.44;100.00;102496.06;4957809;28;20530;-81
2023/01/26 11:55:41;;;;;;;56.60;17.58;;;;;;;3.36;100.00;102468.88;4957693;28;20032;-82